CST,Max TemperatureF,Mean TemperatureF,Min TemperatureF,Max Dew PointF,MeanDew PointF,Min DewpointF,Max Humidity, Mean Humidity, Min Humidity, Max Sea Level PressureIn, Mean Sea Level PressureIn, Min Sea Level PressureIn, Max VisibilityMiles, Mean VisibilityMiles, Min VisibilityMiles, Max Wind SpeedMPH, Mean Wind SpeedMPH, Max Gust SpeedMPH,PrecipitationIn, CloudCover, Events, WindDirDegrees
2013-11-1,80,70,60,70,63,58,100,85,52,29.99,29.89,29.84,10,7,0,17,5,26,0.00,0,Fog,86
2013-11-2,75,63,53,52,45,38,80,54,27,30.23,30.17,30.03,10,10,10,24,15,30,0.00,0,,352
2013-11-3,73,59,45,58,50,42,90,71,48,30.21,30.13,30.06,10,10,10,13,8,20,0.00,2,,59
2013-11-4,71,64,57,70,65,55,100,92,84,30.08,30.01,29.96,10,8,2,13,7,36,0.11,6,Rain,67
2013-11-5,77,73,69,72,70,66,100,92,83,30.04,29.99,29.94,10,7,2,21,8,56,0.92,8,Rain,133
2013-11-6,86,72,57,73,66,52,97,83,55,30.24,30.07,29.98,10,8,2,24,7,36,0.48,5,Rain,359
2013-11-7,63,57,51,49,45,41,75,66,48,30.38,30.32,30.24,10,10,10,22,17,32,0.00,0,,360
2013-11-8,68,57,46,50,47,43,90,71,49,30.35,30.27,30.18,10,10,10,16,8,,0.00,0,,50
2013-11-9,73,62,51,61,55,47,86,76,59,30.18,30.15,30.12,10,10,10,14,8,,0.00,3,,72
2013-11-10,72,66,57,60,55,50,84,70,46,30.27,30.22,30.17,10,10,10,10,8,,0.00,8,,34
2013-11-11,78,66,55,59,56,51,90,72,47,30.24,30.20,30.14,10,10,7,13,7,,0.00,1,,38
2013-11-12,73,63,51,56,52,45,93,76,48,30.53,30.36,30.21,10,10,8,26,12,37,0.00,2,,7
2013-11-13,57,47,37,44,33,25,83,60,30,30.59,30.51,30.41,10,10,10,21,13,24,0.00,0,,16
2013-11-14,66,54,41,59,47,36,93,76,57,30.39,30.21,30.05,10,10,8,16,8,,0.00,0,,60
2013-11-15,75,66,57,65,61,55,97,82,60,30.04,29.97,29.91,10,9,5,9,5,,0.00,1,,102
2013-11-16,79,72,64,73,69,62,100,90,77,29.93,29.87,29.81,10,9,5,17,8,30,0.00,3,,145
2013-11-17,79,74,70,73,71,68,100,93,79,29.93,29.88,29.80,10,4,0,10,7,,0.00,0,Fog,164
2013-11-18,80,73,66,73,67,54,100,82,60,30.07,30.00,29.93,10,5,0,16,6,26,0.00,7,Fog,52
2013-11-19,70,64,59,57,53,47,83,67,54,30.10,30.04,30.01,10,10,10,17,13,32,0.00,7,,63
2013-11-20,75,69,63,72,65,56,94,81,68,30.01,29.95,29.89,10,10,9,20,12,25,0.00,7,Rain,95
2013-11-21,82,76,71,74,72,70,100,90,76,30.06,29.99,29.94,10,9,7,17,10,20,0.00,4,,131
2013-11-22,73,58,42,72,57,40,100,93,86,30.28,30.14,30.04,10,8,2,33,15,36,0.09,7,Rain-Thunderstorm,20
2013-11-23,48,45,42,45,43,40,97,89,82,30.36,30.32,30.27,10,9,4,28,20,34,0.00,8,Rain,358
2013-11-24,48,46,43,43,35,31,80,66,54,30.40,30.35,30.30,10,10,10,20,14,23,0.00,8,,22
2013-11-25,44,42,41,43,41,37,100,92,76,30.26,30.09,30.01,10,6,1,22,16,31,0.76,8,Rain,2
2013-11-26,46,42,39,40,38,36,96,86,71,30.32,30.18,30.05,10,9,5,22,17,30,0.47,7,Rain,319
2013-11-27,51,42,34,35,31,28,89,71,41,30.46,30.39,30.32,10,10,10,21,10,26,0.00,0,,340
2013-11-28,60,46,32,46,39,30,97,79,55,30.46,30.41,30.36,10,10,9,9,5,,0.00,0,,32
2013-11-29,64,54,44,47,45,41,97,77,50,30.49,30.42,30.38,10,10,8,15,9,23,0.00,4,,67
2013-11-30,71,58,46,56,51,43,97,79,53,30.37,30.30,30.22,10,10,8,13,7,,0.00,1,,94